首页
METAR-TAF:

METAR-TAF

机场 :

科克赛德, 比利时

纬度: 51-05N, 经度: 002-39E, 海拔: 4米

当前天气观测

该预报发布于23分钟前的20:25 UTC
风速12节,风向西南
温度 11°C
湿度 94%
气压 1001 hPa
能见度10公里或以上
小雨

METAR: EBFN 062025Z AUTO 23012KT 9999 -RA SCT011/// BKN026/// 11/10 Q1001 GRN

时间: 22:48 (20:48 UTC)

预报

该预报发布于5小时和7分钟前的15:41 UTC
预报有效从06日的 19点(UTC)到 07日的 07点(UTC)
风速18节,风向西转西南
能见度10公里或以上
散云层高于2500英尺
多云层高于4500英尺
短暂存在
从 06日的 19点(UTC)到 06日的 22点(UTC)
风速20节,风向西转西南,有时为30节阵风
能見度: 6000
多云层高于1800英尺
小雨, 小阵雨
几率 30% :
短暂存在
从 06日的 19点(UTC)到 06日的 22点(UTC)
风速22节,风向西转西南,有时为33节阵风
能見度: 3000
多云层高于1200英尺, 塔状积云.
雨, 阵雨
成为
从 07日的 00点(UTC)到 07日的 02点(UTC)
风速13节,风向西转西北
几率 30% :
短暂存在
从 07日的 00点(UTC)到 07日的 05点(UTC)
能見度: 5000
多云层高于1500英尺
小阵雨

TAF: EBFN 061541Z 0619/0707 24018KT 9999 SCT025 BKN045 TEMPO 0619/0622 24020G30KT 6000 -RA -SHRA BKN018 PROB30 TEMPO 0619/0622 24022G33KT 3000 RA SHRA BKN012TCU BECMG 0700/0702 29013KT PROB30 TEMPO 0700/0705 5000 -SHRA BKN015

超过4000个机场的气象观测和天气预报(METAR&TAF报告)。

可查询的气象台以黄色和红色小点在地图上表示。

将鼠标移到小点上方,可查看气象台名称。

然后点击查看天气观测和预报。

如需切换地图:点击带黑十字的绿色按钮放大地图;点击带横线的绿色按钮缩小地图;或者点击绿色箭头查看邻近地区的地图。


METAR-TAF: